createdAt,value
2019-04-26T00:00:09.282Z,13.75
2019-04-26T00:02:43.050Z,13.73
2019-04-26T00:05:12.487Z,13.70
2019-04-26T00:07:41.308Z,13.66
2019-04-26T00:10:18.120Z,13.63
2019-04-26T00:12:51.378Z,13.61
2019-04-26T00:15:27.610Z,13.60
2019-04-26T00:17:58.046Z,13.56
2019-04-26T00:20:26.522Z,13.54
2019-04-26T00:22:55.006Z,13.49
2019-04-26T00:25:23.533Z,13.44
2019-04-26T00:27:52.006Z,13.38
2019-04-26T00:30:21.282Z,13.29
2019-04-26T00:32:49.922Z,13.21
2019-04-26T00:35:18.409Z,13.13
2019-04-26T00:37:46.905Z,13.08
2019-04-26T00:40:16.229Z,13.03
2019-04-26T00:42:45.533Z,13.00
2019-04-26T00:45:14.978Z,12.95
2019-04-26T00:47:44.136Z,12.93
2019-04-26T00:50:13.918Z,12.90
2019-04-26T00:52:44.091Z,12.90
2019-04-26T00:55:14.168Z,12.88
2019-04-26T00:57:42.990Z,12.87
2019-04-26T01:00:13.585Z,12.84
2019-04-26T01:02:43.745Z,12.80
2019-04-26T01:05:12.307Z,12.79
2019-04-26T01:07:42.413Z,12.78
2019-04-26T01:10:10.947Z,12.74
2019-04-26T01:12:39.435Z,12.71
2019-04-26T01:15:08.761Z,12.68
2019-04-26T01:17:37.359Z,12.64
2019-04-26T01:20:06.976Z,12.60
2019-04-26T01:22:38.667Z,12.56
2019-04-26T01:25:07.332Z,12.52
2019-04-26T01:27:36.300Z,12.49
2019-04-26T01:30:07.959Z,12.48
2019-04-26T01:32:38.402Z,12.47
2019-04-26T01:35:07.215Z,12.48
2019-04-26T01:37:35.926Z,12.46
2019-04-26T01:40:07.727Z,12.43
2019-04-26T01:42:50.513Z,12.40
2019-04-26T01:45:26.439Z,12.33
2019-04-26T01:47:58.102Z,12.26
2019-04-26T01:50:29.428Z,12.21
2019-04-26T01:52:59.463Z,12.17
2019-04-26T01:55:29.152Z,12.14
2019-04-26T01:57:59.312Z,12.12
2019-04-26T02:00:29.603Z,12.09
2019-04-26T02:02:59.694Z,12.07
2019-04-26T02:05:28.176Z,12.04
2019-04-26T02:07:56.795Z,12.01
2019-04-26T02:10:26.674Z,12.00
2019-04-26T02:12:56.058Z,11.97
2019-04-26T02:15:27.804Z,11.96
2019-04-26T02:17:57.065Z,11.95
2019-04-26T02:20:52.741Z,11.94
2019-04-26T02:23:28.559Z,11.94
2019-04-26T02:25:57.119Z,11.92
2019-04-26T02:28:26.715Z,11.92
2019-04-26T02:30:55.400Z,11.92
2019-04-26T02:33:25.306Z,11.90
2019-04-26T02:35:54.208Z,11.89
2019-04-26T02:38:22.776Z,11.87
2019-04-26T02:40:51.714Z,11.87
2019-04-26T02:43:21.989Z,11.87
2019-04-26T02:45:52.681Z,11.86
2019-04-26T02:48:34.852Z,11.86
2019-04-26T02:51:07.252Z,11.88
2019-04-26T02:53:51.082Z,11.87
2019-04-26T02:56:22.732Z,11.88
2019-04-26T02:58:57.119Z,11.89
2019-04-26T03:01:29.285Z,11.90
2019-04-26T03:03:57.474Z,11.90
2019-04-26T03:06:26.809Z,11.88
2019-04-26T03:08:58.141Z,11.87
2019-04-26T03:11:31.461Z,11.87
2019-04-26T03:14:12.181Z,11.83
2019-04-26T03:16:54.394Z,11.82
2019-04-26T03:19:35.309Z,11.80
2019-04-26T03:22:18.732Z,11.80
2019-04-26T03:25:05.247Z,11.81
2019-04-26T03:27:43.541Z,11.81
2019-04-26T03:30:23.157Z,11.82
2019-04-26T03:33:24.930Z,11.80
2019-04-26T03:36:16.470Z,11.80
2019-04-26T03:38:58.407Z,11.79
2019-04-26T03:41:44.463Z,11.77
2019-04-26T03:44:22.052Z,11.77
2019-04-26T03:46:53.691Z,11.81
2019-04-26T03:49:42.020Z,11.97
2019-04-26T03:52:21.965Z,12.19
2019-04-26T03:54:56.311Z,12.43
2019-04-26T03:57:30.056Z,12.60
2019-04-26T04:00:23.409Z,12.77
2019-04-26T04:03:32.777Z,12.90
2019-04-26T04:06:03.534Z,12.91
2019-04-26T04:08:42.849Z,12.83
2019-04-26T04:11:14.440Z,12.74
2019-04-26T04:13:55.224Z,12.65
2019-04-26T04:16:27.461Z,12.56
2019-04-26T04:19:25.156Z,12.49
2019-04-26T04:22:02.810Z,12.42
2019-04-26T04:24:41.773Z,12.37
2019-04-26T04:27:14.454Z,12.36
2019-04-26T04:29:55.320Z,12.35
2019-04-26T04:32:47.519Z,12.36
2019-04-26T04:35:17.074Z,12.37
2019-04-26T04:38:10.075Z,12.42
2019-04-26T04:40:47.189Z,12.47
2019-04-26T04:43:23.119Z,12.54
2019-04-26T04:46:08.668Z,12.63
2019-04-26T04:49:24.341Z,12.71
2019-04-26T04:52:11.054Z,12.87
2019-04-26T04:55:14.351Z,13.03
2019-04-26T04:57:54.865Z,13.17
2019-04-26T05:00:43.515Z,13.29
2019-04-26T05:03:26.048Z,13.39
2019-04-26T05:06:11.416Z,13.51
2019-04-26T05:08:52.995Z,13.61
2019-04-26T05:11:25.583Z,13.71
2019-04-26T05:14:16.696Z,13.82
2019-04-26T05:16:54.668Z,13.91
2019-04-26T05:19:41.416Z,14.04
2019-04-26T05:22:32.037Z,14.15
2019-04-26T05:25:21.883Z,14.28
2019-04-26T05:28:14.670Z,14.40
2019-04-26T05:31:21.582Z,14.55
2019-04-26T05:34:07.830Z,14.70
2019-04-26T05:36:52.671Z,14.88
2019-04-26T05:39:24.409Z,15.04
2019-04-26T05:42:21.491Z,15.22
2019-04-26T05:45:18.988Z,15.34
2019-04-26T05:48:16.371Z,15.50
2019-04-26T05:51:21.137Z,15.66
2019-04-26T05:54:08.979Z,15.79
2019-04-26T05:56:56.770Z,15.92
2019-04-26T05:59:50.609Z,16.04
2019-04-26T06:02:31.113Z,16.18
2019-04-26T06:05:25.270Z,16.30
2019-04-26T06:08:01.551Z,16.43
2019-04-26T06:10:49.067Z,16.55
2019-04-26T06:13:43.270Z,16.68
2019-04-26T06:16:22.373Z,16.83
2019-04-26T06:19:13.100Z,16.97
2019-04-26T06:21:53.808Z,17.12
2019-04-26T06:24:28.187Z,17.27
2019-04-26T06:27:13.654Z,17.42
2019-04-26T06:29:49.853Z,17.58
2019-04-26T06:32:24.350Z,17.72
2019-04-26T06:35:11.060Z,17.87
2019-04-26T06:38:14.599Z,18.01
2019-04-26T06:41:21.262Z,18.18
2019-04-26T06:43:53.964Z,18.33
2019-04-26T06:46:39.612Z,18.52
2019-04-26T06:49:18.594Z,18.68
2019-04-26T06:52:02.599Z,18.86
2019-04-26T06:54:57.779Z,19.02
2019-04-26T06:58:07.250Z,19.20
2019-04-26T07:00:49.597Z,19.38
2019-04-26T07:03:38.426Z,19.56
2019-04-26T07:06:09.189Z,19.73
2019-04-26T07:08:56.605Z,19.90
2019-04-26T07:11:40.074Z,20.05
2019-04-26T07:14:37.376Z,20.21
2019-04-26T07:17:09.053Z,20.36
2019-04-26T07:20:16.863Z,20.54
2019-04-26T07:22:55.503Z,20.65
2019-04-26T07:25:54.516Z,20.84
2019-04-26T07:28:47.438Z,20.99
2019-04-26T07:31:35.920Z,21.18
2019-04-26T07:34:40.573Z,21.33
2019-04-26T07:37:34.813Z,21.50
2019-04-26T07:40:39.811Z,21.69
2019-04-26T07:43:29.927Z,21.84
2019-04-26T07:46:24.513Z,22.03
2019-04-26T07:49:12.503Z,22.19
2019-04-26T07:51:53.264Z,22.36
2019-04-26T07:54:41.452Z,22.51
2019-04-26T07:57:20.181Z,22.64
2019-04-26T08:00:15.677Z,22.80
2019-04-26T08:03:04.105Z,22.93
2019-04-26T08:05:50.613Z,23.06
2019-04-26T08:08:21.059Z,23.18
2019-04-26T08:11:10.943Z,23.30
2019-04-26T08:13:59.066Z,23.41
2019-04-26T08:16:33.022Z,23.54
2019-04-26T08:19:08.869Z,23.67
2019-04-26T08:21:42.456Z,23.77
2019-04-26T08:24:16.748Z,23.87
2019-04-26T08:26:48.517Z,23.98
2019-04-26T08:29:19.447Z,24.07
2019-04-26T08:31:49.662Z,24.20
2019-04-26T08:34:28.877Z,24.29
2019-04-26T08:36:57.238Z,24.38
2019-04-26T08:39:32.402Z,24.44
2019-04-26T08:41:58.555Z,24.55
2019-04-26T08:44:42.324Z,24.62
2019-04-26T08:47:28.960Z,24.71
2019-04-26T08:50:13.694Z,24.79
2019-04-26T08:52:44.250Z,24.86
2019-04-26T08:55:13.180Z,24.94
2019-04-26T08:57:43.193Z,25.00
2019-04-26T09:00:16.756Z,25.04
2019-04-26T09:02:54.285Z,25.08
2019-04-26T09:05:45.727Z,25.13
2019-04-26T09:08:15.728Z,25.19
2019-04-26T09:10:47.116Z,25.27
2019-04-26T09:13:17.128Z,25.32
2019-04-26T09:16:03.213Z,25.35
2019-04-26T09:18:42.323Z,25.39
2019-04-26T09:21:01.975Z,25.43
2019-04-26T09:23:51.019Z,25.50
2019-04-26T09:26:22.865Z,25.58
2019-04-26T09:29:08.250Z,25.67
2019-04-26T09:31:44.127Z,25.74
2019-04-26T09:34:21.317Z,25.84
2019-04-26T09:36:49.815Z,25.94
2019-04-26T09:39:18.363Z,26.03
2019-04-26T09:41:47.043Z,26.11
2019-04-26T09:44:33.085Z,26.19
2019-04-26T09:47:19.361Z,26.25
2019-04-26T09:49:52.152Z,26.32
2019-04-26T09:52:44.084Z,26.39
2019-04-26T09:55:12.720Z,26.47
2019-04-26T09:57:41.196Z,26.50
2019-04-26T10:00:14.262Z,26.55
2019-04-26T10:02:42.788Z,26.58
2019-04-26T10:05:11.919Z,26.67
2019-04-26T10:07:41.704Z,26.76
2019-04-26T10:10:22.355Z,26.83
2019-04-26T10:12:59.756Z,26.88
2019-04-26T10:15:41.931Z,26.94
2019-04-26T10:18:10.485Z,27.02
2019-04-26T10:20:38.969Z,27.10
2019-04-26T10:23:07.507Z,27.16
2019-04-26T10:25:36.027Z,27.21
2019-04-26T10:28:04.668Z,27.27
2019-04-26T10:30:33.139Z,27.32
2019-04-26T10:33:02.172Z,27.38
2019-04-26T10:35:31.793Z,27.43
2019-04-26T10:38:00.292Z,27.49
2019-04-26T10:40:35.359Z,27.54
2019-04-26T10:42:59.026Z,27.61
2019-04-26T10:45:29.159Z,27.69
2019-04-26T10:47:57.687Z,27.78
2019-04-26T10:50:28.735Z,27.86
2019-04-26T10:53:13.272Z,27.91
2019-04-26T10:55:46.462Z,28.02
2019-04-26T10:58:27.540Z,28.07
2019-04-26T11:01:00.745Z,28.12
2019-04-26T11:03:29.222Z,28.12
2019-04-26T11:05:57.735Z,28.12
2019-04-26T11:08:26.213Z,28.13
2019-04-26T11:10:54.828Z,28.16
2019-04-26T11:13:23.561Z,28.21
2019-04-26T11:15:52.124Z,28.27
2019-04-26T11:18:27.331Z,28.36
2019-04-26T11:20:50.837Z,28.47
2019-04-26T11:23:19.327Z,28.58
2019-04-26T11:25:47.886Z,28.70
2019-04-26T11:28:17.154Z,28.84
2019-04-26T11:30:48.063Z,28.99
2019-04-26T11:33:16.840Z,29.11
2019-04-26T11:35:45.449Z,29.21
2019-04-26T11:38:13.971Z,29.30
2019-04-26T11:40:44.353Z,29.35
2019-04-26T11:43:15.760Z,29.38
2019-04-26T11:45:45.343Z,29.42
2019-04-26T11:48:13.101Z,29.47
2019-04-26T11:50:41.641Z,29.57
2019-04-26T11:53:11.297Z,29.62
2019-04-26T11:55:39.829Z,29.61
2019-04-26T11:58:08.351Z,29.61
2019-04-26T12:00:44.591Z,29.59
2019-04-26T12:03:13.141Z,29.51
2019-04-26T12:05:45.740Z,29.45
2019-04-26T12:08:21.656Z,29.38
2019-04-26T12:10:50.136Z,29.39
2019-04-26T12:13:21.364Z,29.41
2019-04-26T12:15:49.139Z,29.43
2019-04-26T12:18:17.673Z,29.47
2019-04-26T12:20:46.173Z,29.51
2019-04-26T12:23:20.759Z,29.57
2019-04-26T12:25:48.035Z,29.61
2019-04-26T12:28:15.087Z,29.63
2019-04-26T12:30:43.672Z,29.66
2019-04-26T12:33:12.216Z,29.70
2019-04-26T12:35:40.711Z,29.65
2019-04-26T12:38:09.314Z,29.63
2019-04-26T12:40:37.793Z,29.59
2019-04-26T12:43:06.406Z,29.51
2019-04-26T12:45:36.604Z,29.44
2019-04-26T12:48:12.314Z,29.34
2019-04-26T12:50:39.786Z,29.28
2019-04-26T12:53:08.305Z,29.21
2019-04-26T12:55:36.783Z,29.15
2019-04-26T12:58:05.344Z,29.08
2019-04-26T13:00:37.614Z,29.00
2019-04-26T13:03:05.771Z,28.93
2019-04-26T13:05:34.338Z,28.84
2019-04-26T13:08:02.836Z,28.71
2019-04-26T13:10:48.318Z,28.59
2019-04-26T13:13:18.502Z,28.49
2019-04-26T13:15:50.372Z,28.36
2019-04-26T13:18:19.825Z,28.23
2019-04-26T13:20:48.483Z,28.12
2019-04-26T13:23:17.016Z,27.93
2019-04-26T13:25:45.481Z,27.63
2019-04-26T13:28:15.655Z,27.24
2019-04-26T13:30:44.925Z,26.82
2019-04-26T13:33:13.494Z,26.39
2019-04-26T13:35:46.705Z,25.91
2019-04-26T13:38:12.266Z,25.35
2019-04-26T13:40:40.807Z,24.82
2019-04-26T13:43:09.400Z,24.34
2019-04-26T13:45:55.704Z,23.90
2019-04-26T13:48:43.686Z,23.54
2019-04-26T13:51:26.410Z,23.20
2019-04-26T13:53:54.911Z,22.96
2019-04-26T13:56:23.468Z,22.78
2019-04-26T13:58:54.469Z,22.89
2019-04-26T14:01:22.200Z,22.97
2019-04-26T14:03:50.678Z,23.10
2019-04-26T14:06:19.177Z,23.23
2019-04-26T14:08:47.715Z,23.43
2019-04-26T14:11:16.267Z,23.62
2019-04-26T14:13:44.837Z,23.83
2019-04-26T14:16:13.373Z,24.01
2019-04-26T14:18:41.847Z,24.18
2019-04-26T14:21:10.343Z,24.27
2019-04-26T14:23:40.575Z,24.33
2019-04-26T14:26:16.521Z,24.39
2019-04-26T14:28:45.024Z,24.39
2019-04-26T14:31:16.621Z,24.36
2019-04-26T14:33:43.781Z,24.35
2019-04-26T14:36:18.140Z,24.33
2019-04-26T14:38:42.497Z,24.32
2019-04-26T14:41:13.328Z,24.33
2019-04-26T14:43:41.637Z,24.38
2019-04-26T14:46:14.035Z,24.41
2019-04-26T14:48:44.570Z,24.43
2019-04-26T14:51:12.395Z,24.45
2019-04-26T14:53:40.905Z,24.50
2019-04-26T14:56:09.387Z,24.58
2019-04-26T14:58:37.917Z,24.61
2019-04-26T15:01:08.048Z,24.52
2019-04-26T15:03:40.896Z,24.35
2019-04-26T15:06:12.801Z,24.15
2019-04-26T15:08:45.253Z,23.89
2019-04-26T15:11:12.859Z,23.67
2019-04-26T15:13:43.745Z,23.53
2019-04-26T15:16:13.998Z,23.37
2019-04-26T15:18:42.626Z,23.27
2019-04-26T15:21:12.926Z,23.17
2019-04-26T15:23:41.584Z,23.03
2019-04-26T15:26:10.089Z,22.89
2019-04-26T15:28:38.633Z,22.77
2019-04-26T15:31:07.116Z,22.67
2019-04-26T15:33:36.040Z,22.60
2019-04-26T15:36:06.262Z,22.51
2019-04-26T15:38:41.557Z,22.43
2019-04-26T15:41:24.738Z,22.40
2019-04-26T15:43:55.363Z,22.37
2019-04-26T15:46:25.480Z,22.31
2019-04-26T15:48:58.617Z,22.27
2019-04-26T15:51:28.732Z,22.21
2019-04-26T15:53:57.222Z,22.14
2019-04-26T15:56:25.721Z,22.04
2019-04-26T15:58:54.245Z,21.92
2019-04-26T16:01:22.740Z,21.80
2019-04-26T16:03:52.921Z,21.67
2019-04-26T16:06:21.603Z,21.57
2019-04-26T16:08:50.093Z,21.50
2019-04-26T16:11:18.645Z,21.40
2019-04-26T16:13:52.194Z,21.32
2019-04-26T16:16:20.555Z,21.24
2019-04-26T16:18:49.887Z,21.16
2019-04-26T16:21:19.385Z,21.07
2019-04-26T16:23:52.019Z,21.01
2019-04-26T16:26:18.279Z,21.00
2019-04-26T16:29:04.486Z,20.94
2019-04-26T16:31:47.129Z,20.89
2019-04-26T16:34:23.451Z,20.81
2019-04-26T16:36:52.564Z,20.78
2019-04-26T16:39:23.218Z,20.89
2019-04-26T16:41:52.378Z,21.06
2019-04-26T16:44:28.222Z,21.30
2019-04-26T16:46:53.932Z,21.58
2019-04-26T16:49:23.385Z,21.83
2019-04-26T16:54:26.553Z,22.25
2019-04-26T16:56:52.701Z,22.46
2019-04-26T16:59:23.879Z,22.61
2019-04-26T17:00:45.475Z,22.06
2019-04-26T17:01:53.638Z,22.71
2019-04-26T17:04:28.355Z,22.70
2019-04-26T17:06:52.959Z,22.70
2019-04-26T17:09:23.508Z,22.63
2019-04-26T17:11:52.383Z,22.55
2019-04-26T17:14:24.054Z,22.43
2019-04-26T17:16:53.253Z,22.28
2019-04-26T17:19:22.820Z,22.13
2019-04-26T17:21:56.532Z,21.96
2019-04-26T17:24:38.089Z,21.74
2019-04-26T17:27:14.439Z,21.49
2019-04-26T17:29:42.369Z,21.18
2019-04-26T17:32:13.908Z,20.88
2019-04-26T17:34:41.176Z,20.63
2019-04-26T17:37:14.311Z,20.40
2019-04-26T17:39:40.758Z,20.19
2019-04-26T17:42:10.543Z,19.97
2019-04-26T17:44:39.107Z,19.79
2019-04-26T17:47:08.510Z,19.62
2019-04-26T17:49:40.205Z,19.45
2019-04-26T17:52:07.813Z,19.29
2019-04-26T17:54:46.334Z,19.09
2019-04-26T17:57:08.839Z,18.90
2019-04-26T17:59:37.150Z,18.73
2019-04-26T18:02:18.350Z,18.59
2019-04-26T18:04:40.509Z,18.46
2019-04-26T18:07:33.770Z,18.32
2019-04-26T18:09:43.237Z,18.20
2019-04-26T18:12:08.121Z,18.09
2019-04-26T18:14:36.617Z,17.96
2019-04-26T18:17:06.808Z,17.83
2019-04-26T18:19:45.789Z,17.69
2019-04-26T18:22:28.455Z,17.56
2019-04-26T18:24:55.425Z,17.39
2019-04-26T18:27:24.050Z,17.25
2019-04-26T18:29:53.211Z,17.13
2019-04-26T18:32:22.228Z,16.99
2019-04-26T18:34:50.697Z,16.88
2019-04-26T18:37:19.188Z,16.76
2019-04-26T18:39:47.737Z,16.67
2019-04-26T18:42:18.338Z,16.58
2019-04-26T18:44:47.998Z,16.51
2019-04-26T18:47:20.545Z,16.46
2019-04-26T18:49:52.116Z,16.40
2019-04-26T18:52:19.402Z,16.36
2019-04-26T18:54:53.557Z,16.33
2019-04-26T18:57:23.716Z,16.29
2019-04-26T18:59:52.991Z,16.26
2019-04-26T19:02:23.619Z,16.23
2019-04-26T19:04:52.950Z,16.19
2019-04-26T19:07:31.959Z,16.16
2019-04-26T19:10:02.808Z,16.12
2019-04-26T19:12:26.679Z,16.07
2019-04-26T19:15:07.141Z,16.03
2019-04-26T19:17:37.873Z,15.98
2019-04-26T19:20:20.524Z,15.94
2019-04-26T19:22:53.858Z,15.89
2019-04-26T19:25:24.970Z,15.83
2019-04-26T19:27:54.108Z,15.79
2019-04-26T19:30:22.756Z,15.72
2019-04-26T19:32:53.538Z,15.66
2019-04-26T19:35:21.974Z,15.58
2019-04-26T19:37:51.797Z,15.52
2019-04-26T19:40:20.437Z,15.47
2019-04-26T19:42:53.670Z,15.41
2019-04-26T19:45:23.556Z,15.37
2019-04-26T19:47:56.678Z,15.32
2019-04-26T19:50:29.782Z,15.27
2019-04-26T19:53:02.686Z,15.23
2019-04-26T19:55:47.490Z,15.19
2019-04-26T19:58:20.130Z,15.14
2019-04-26T20:00:46.764Z,15.08
2019-04-26T20:03:16.788Z,15.06
2019-04-26T20:05:44.750Z,15.00
2019-04-26T20:08:13.236Z,14.97
2019-04-26T20:10:45.510Z,14.94
2019-04-26T20:13:15.137Z,14.90
2019-04-26T20:15:42.379Z,14.86
2019-04-26T20:18:12.246Z,14.86
2019-04-26T20:20:41.394Z,14.85
2019-04-26T20:23:10.136Z,14.83
2019-04-26T20:25:38.896Z,14.81
2019-04-26T20:28:07.402Z,14.80
2019-04-26T20:30:39.979Z,14.79
2019-04-26T20:33:08.479Z,14.76
2019-04-26T20:35:37.002Z,14.75
2019-04-26T20:38:05.874Z,14.75
2019-04-26T20:40:34.353Z,14.73
2019-04-26T20:43:06.814Z,14.71
2019-04-26T20:45:41.311Z,14.67
2019-04-26T20:48:03.297Z,14.64
2019-04-26T20:50:33.464Z,14.62
2019-04-26T20:53:02.358Z,14.58
2019-04-26T20:55:34.414Z,14.57
2019-04-26T20:58:05.754Z,14.56
2019-04-26T21:00:31.759Z,14.55
2019-04-26T21:03:05.844Z,14.54
2019-04-26T21:05:43.324Z,14.54
2019-04-26T21:08:03.366Z,14.52
2019-04-26T21:10:32.379Z,14.53
2019-04-26T21:13:01.897Z,14.52
2019-04-26T21:15:32.143Z,14.50
2019-04-26T21:18:03.844Z,14.50
2019-04-26T21:20:32.747Z,14.48
2019-04-26T21:23:02.474Z,14.48
2019-04-26T21:25:35.917Z,14.48
2019-04-26T21:28:09.567Z,14.50
2019-04-26T21:30:39.726Z,14.50
2019-04-26T21:33:21.915Z,14.48
2019-04-26T21:36:01.818Z,14.47
2019-04-26T21:38:33.353Z,14.47
2019-04-26T21:41:11.446Z,14.49
2019-04-26T21:43:38.274Z,14.50
2019-04-26T21:46:08.377Z,14.51
2019-04-26T21:48:41.287Z,14.52
2019-04-26T21:51:08.498Z,14.53
2019-04-26T21:53:38.287Z,14.51
2019-04-26T21:56:11.516Z,14.51
2019-04-26T21:58:38.174Z,14.51
2019-04-26T22:01:11.023Z,14.50
2019-04-26T22:03:38.637Z,14.48
2019-04-26T22:06:07.264Z,14.47
2019-04-26T22:08:37.397Z,14.46
2019-04-26T22:11:05.939Z,14.43
2019-04-26T22:13:52.227Z,14.42
2019-04-26T22:16:36.002Z,14.42
2019-04-26T22:19:03.928Z,14.40
2019-04-26T22:21:43.527Z,14.38
2019-04-26T22:24:25.481Z,14.35
2019-04-26T22:26:54.147Z,14.33
2019-04-26T22:29:23.024Z,14.31
2019-04-26T22:31:54.613Z,14.29
2019-04-26T22:34:23.446Z,14.29
2019-04-26T22:36:53.686Z,14.28
2019-04-26T22:39:22.811Z,14.29
2019-04-26T22:41:53.432Z,14.26
2019-04-26T22:44:35.530Z,14.26
2019-04-26T22:47:23.923Z,14.26
2019-04-26T22:49:52.252Z,14.25
2019-04-26T22:52:20.734Z,14.25
2019-04-26T22:54:49.223Z,14.25
2019-04-26T22:57:17.843Z,14.25
2019-04-26T22:59:50.301Z,14.24
2019-04-26T23:02:18.551Z,14.21
2019-04-26T23:04:47.357Z,14.19
2019-04-26T23:07:18.275Z,14.18
2019-04-26T23:09:51.902Z,14.17
2019-04-26T23:12:27.697Z,14.15
2019-04-26T23:14:56.383Z,14.11
2019-04-26T23:17:31.355Z,14.07
2019-04-26T23:20:10.478Z,14.03
2019-04-26T23:22:39.054Z,14.01
2019-04-26T23:25:07.534Z,13.99
2019-04-26T23:27:36.010Z,13.98
2019-04-26T23:30:05.422Z,13.95
2019-04-26T23:32:33.958Z,13.91
2019-04-26T23:35:05.965Z,13.88
2019-04-26T23:37:32.748Z,13.85
2019-04-26T23:40:01.222Z,13.79
2019-04-26T23:42:29.720Z,13.74
2019-04-26T23:44:58.237Z,13.72
2019-04-26T23:47:26.711Z,13.71
2019-04-26T23:49:57.002Z,13.69
2019-04-26T23:52:25.443Z,13.68
2019-04-26T23:54:53.924Z,13.66
2019-04-26T23:57:22.405Z,13.67
2019-04-26T23:59:55.307Z,13.66
